Terminal Aerodrome Forecast
Issued by NWS

Home | Current Version | Previous Version | Text Only | Print | Product List | Glossary On
Versions: 1 2 3 4 5 6 7 8 9 10 11 12
000
FTPA31 PHFO 182354
TAFSTU
TAF
NSTU 182354Z 1900/1924 25008KT P6SM FEW025 BKN200
     FM190900 28006KT P6SM VCSH FEW025 SCT040 SCT200
     FM191800 31008KT P6SM -SHRA SCT025 OVC040=

USA.gov is the U.S. government's official web portal to all federal, state and local government web resources and services.